createdAt,value
2022-08-25T00:00:26.143Z,0.6
2022-08-25T00:01:16.050Z,1
2022-08-25T00:02:14.366Z,1
2022-08-25T00:03:15.902Z,0.43
2022-08-25T00:04:15.913Z,0.7
2022-08-25T00:05:13.880Z,0.7
2022-08-25T00:06:17.251Z,1.01
2022-08-25T00:07:20.715Z,0.97
2022-08-25T00:08:24.247Z,0.57
2022-08-25T00:09:17.932Z,1.23
2022-08-25T00:10:06.700Z,1.23
2022-08-25T00:11:20.953Z,1.1
2022-08-25T00:12:18.948Z,0.92
2022-08-25T00:13:12.351Z,0.92
2022-08-25T00:14:17.749Z,0.58
2022-08-25T00:15:17.759Z,0.58
2022-08-25T00:16:17.445Z,0.66
2022-08-25T00:17:17.269Z,1.13
2022-08-25T00:18:22.030Z,1.13
2022-08-25T00:19:16.712Z,1.42
2022-08-25T00:20:18.582Z,0.76
2022-08-25T00:21:19.459Z,0.76
2022-08-25T00:22:17.775Z,0.81
2022-08-25T00:23:15.800Z,1.38
2022-08-25T00:24:15.610Z,0.96
2022-08-25T00:25:24.484Z,1.43
2022-08-25T00:26:24.134Z,1.43
2022-08-25T00:27:16.410Z,0.8
2022-08-25T00:28:18.476Z,0.8
2022-08-25T00:29:20.522Z,1.12
2022-08-25T00:30:18.149Z,0.89
2022-08-25T00:31:12.949Z,1.26
2022-08-25T00:32:22.687Z,1.26
2022-08-25T00:33:14.949Z,0.78
2022-08-25T00:34:15.933Z,1.75
2022-08-25T00:35:19.576Z,1.75
2022-08-25T00:36:11.806Z,1.01
2022-08-25T00:37:21.303Z,1.01
2022-08-25T00:38:16.662Z,0.65
2022-08-25T00:39:24.227Z,1.29
2022-08-25T00:40:06.386Z,1.29
2022-08-25T00:41:16.781Z,1.29
2022-08-25T00:42:18.311Z,0.8
2022-08-25T00:43:15.082Z,0.8
2022-08-25T00:44:14.115Z,0.73
2022-08-25T00:45:18.554Z,0.79
2022-08-25T00:46:16.773Z,1.04
2022-08-25T00:47:18.556Z,1.04
2022-08-25T00:48:18.291Z,0.84
2022-08-25T00:49:27.424Z,0.92
2022-08-25T00:50:28.761Z,0.75
2022-08-25T00:51:11.764Z,0.75
2022-08-25T00:52:22.508Z,0.82
2022-08-25T00:53:15.084Z,0.82
2022-08-25T00:54:18.459Z,0.78
2022-08-25T00:55:23.703Z,0.78
2022-08-25T00:56:15.605Z,0.96
2022-08-25T00:57:17.829Z,1.15
2022-08-25T00:58:14.922Z,1.15
2022-08-25T00:59:18.659Z,1.02
2022-08-25T01:00:12.988Z,1.02
2022-08-25T01:01:17.050Z,0.77
2022-08-25T01:02:19.793Z,1.75
2022-08-25T01:03:13.355Z,0.54
2022-08-25T01:04:14.490Z,0.36
2022-08-25T01:05:07.959Z,0.36
2022-08-25T01:06:32.552Z,0.65
2022-08-25T01:07:20.118Z,1.02
2022-08-25T01:08:18.417Z,1.02
2022-08-25T01:09:20.025Z,1.02
2022-08-25T01:10:07.049Z,1.02
2022-08-25T01:11:15.849Z,1.02
2022-08-25T01:12:25.988Z,0.74
2022-08-25T01:13:20.184Z,1.45
2022-08-25T01:14:15.268Z,1.45
2022-08-25T01:15:24.030Z,0.82
2022-08-25T01:16:05.742Z,0.82
2022-08-25T01:17:19.698Z,1.05
2022-08-25T01:18:13.725Z,1.05
2022-08-25T01:19:17.730Z,1.16
2022-08-25T01:20:21.192Z,0.79
2022-08-25T01:21:13.847Z,1.19
2022-08-25T01:22:15.164Z,0.55
2022-08-25T01:23:20.745Z,0.5
2022-08-25T01:24:18.638Z,1.27
2022-08-25T01:25:15.029Z,1.27
2022-08-25T01:26:32.196Z,0.79
2022-08-25T01:27:13.413Z,0.79
2022-08-25T01:28:19.231Z,0.89
2022-08-25T01:29:14.312Z,0.65
2022-08-25T01:30:20.524Z,1.14
2022-08-25T01:31:25.749Z,0.88
2022-08-25T01:32:14.667Z,0.53
2022-08-25T01:33:14.850Z,0.53
2022-08-25T01:34:19.712Z,0.47
2022-08-25T01:35:16.408Z,0.47
2022-08-25T01:36:15.979Z,0.47
2022-08-25T01:37:18.183Z,0.75
2022-08-25T01:38:19.534Z,0.94
2022-08-25T01:39:19.385Z,0.75
2022-08-25T01:40:05.253Z,0.75
2022-08-25T01:41:11.967Z,0.72
2022-08-25T01:42:21.418Z,1.02
2022-08-25T01:43:14.523Z,1.05
2022-08-25T01:44:19.736Z,1.05
2022-08-25T01:45:15.494Z,0.73
2022-08-25T01:46:13.804Z,0.83
2022-08-25T01:47:17.894Z,0.83
2022-08-25T01:48:16.805Z,0.88
2022-08-25T01:49:18.432Z,0.72
2022-08-25T01:50:19.146Z,0.94
2022-08-25T01:51:16.525Z,0.94
2022-08-25T01:52:17.356Z,0.57
2022-08-25T01:53:18.358Z,0.57
2022-08-25T01:54:17.544Z,0.88
2022-08-25T01:55:22.563Z,0.88
2022-08-25T01:56:18.494Z,0.76
2022-08-25T01:57:18.302Z,1.22
2022-08-25T01:58:15.362Z,1.22
2022-08-25T01:59:25.984Z,1.12
2022-08-25T02:00:16.803Z,0.88
2022-08-25T02:01:13.803Z,1.09
2022-08-25T02:02:20.325Z,1.09
2022-08-25T02:03:21.114Z,0.85
2022-08-25T02:04:23.793Z,0.85
2022-08-25T02:05:27.223Z,1.16
2022-08-25T02:06:16.805Z,1.16
2022-08-25T02:07:21.262Z,1.32
2022-08-25T02:08:14.644Z,1.32
2022-08-25T02:09:26.955Z,0.96
2022-08-25T02:10:10.526Z,0.96
2022-08-25T02:11:17.341Z,0.74
2022-08-25T02:12:16.402Z,1.33
2022-08-25T02:13:20.975Z,1.33
2022-08-25T02:14:16.740Z,1.03
2022-08-25T02:15:18.693Z,1.03
2022-08-25T02:16:19.708Z,1.31
2022-08-25T02:17:18.019Z,1.34
2022-08-25T02:18:16.056Z,1.34
2022-08-25T02:19:12.886Z,0.89
2022-08-25T02:20:18.299Z,1.27
2022-08-25T02:21:11.985Z,1.18
2022-08-25T02:22:22.112Z,1.18
2022-08-25T02:23:15.406Z,1.59
2022-08-25T02:24:20.892Z,1.59
2022-08-25T02:25:19.315Z,1.34
2022-08-25T02:26:15.728Z,1.34
2022-08-25T02:27:14.986Z,1.65
2022-08-25T02:28:20.731Z,1.24
2022-08-25T02:29:17.694Z,1.08
2022-08-25T02:30:16.857Z,0.87
2022-08-25T02:31:20.126Z,0.8
2022-08-25T02:32:18.598Z,0.99
2022-08-25T02:33:16.920Z,1.65
2022-08-25T02:34:14.713Z,1.15
2022-08-25T02:35:20.443Z,0.67
2022-08-25T02:36:21.957Z,0.67
2022-08-25T02:37:18.267Z,0.67
2022-08-25T02:38:23.688Z,1.39
2022-08-25T02:39:26.260Z,1.39
2022-08-25T02:40:05.667Z,1.39
2022-08-25T02:41:15.087Z,1.39
2022-08-25T02:42:23.541Z,1.23
2022-08-25T02:43:14.098Z,1.23
2022-08-25T02:44:17.448Z,1.23
2022-08-25T02:45:16.776Z,1.26
2022-08-25T02:46:16.757Z,1.26
2022-08-25T02:47:15.221Z,1.01
2022-08-25T02:48:12.846Z,0.9
2022-08-25T02:49:16.041Z,0.9
2022-08-25T02:50:17.682Z,0.63
2022-08-25T02:51:18.158Z,1.22
2022-08-25T02:52:14.776Z,1.22
2022-08-25T02:53:15.721Z,0.89
2022-08-25T02:54:18.264Z,0.98
2022-08-25T02:55:17.057Z,1.4
2022-08-25T02:56:19.678Z,0.92
2022-08-25T02:57:16.635Z,0.92
2022-08-25T02:58:19.508Z,1.19
2022-08-25T02:59:17.429Z,1.14
2022-08-25T03:00:20.849Z,1.19
2022-08-25T03:01:14.971Z,0.96
2022-08-25T03:02:14.220Z,0.96
2022-08-25T03:03:18.556Z,0.96
2022-08-25T03:04:21.860Z,0.62
2022-08-25T03:05:18.130Z,0.62
2022-08-25T03:06:39.439Z,0.75
2022-08-25T03:07:05.045Z,1.15
2022-08-25T03:08:18.715Z,0.91
2022-08-25T03:09:23.708Z,1.08
2022-08-25T03:10:06.182Z,1.08
2022-08-25T03:11:19.916Z,0.85
2022-08-25T03:12:19.419Z,0.85
2022-08-25T03:13:14.861Z,0.83
2022-08-25T03:14:18.799Z,0.83
2022-08-25T03:15:15.991Z,1.46
2022-08-25T03:16:20.808Z,1.46
2022-08-25T03:17:16.462Z,1.08
2022-08-25T03:18:19.297Z,1.08
2022-08-25T03:19:25.766Z,0.89
2022-08-25T03:20:18.738Z,0.75
2022-08-25T03:21:17.814Z,0.75
2022-08-25T03:22:15.618Z,0.75
2022-08-25T03:23:18.163Z,1.49
2022-08-25T03:24:18.357Z,1.49
2022-08-25T03:25:25.980Z,1.26
2022-08-25T03:26:21.094Z,0.84
2022-08-25T03:27:23.440Z,0.84
2022-08-25T03:28:08.102Z,0.84
2022-08-25T03:29:20.271Z,1.34
2022-08-25T03:30:16.873Z,1.34
2022-08-25T03:31:22.538Z,2.02
2022-08-25T03:32:14.531Z,1.33
2022-08-25T03:33:15.641Z,1.33
2022-08-25T03:34:21.504Z,1.33
2022-08-25T03:35:19.438Z,1.35
2022-08-25T03:36:19.775Z,1.35
2022-08-25T03:37:36.263Z,0.82
2022-08-25T03:38:05.939Z,0.82
2022-08-25T03:39:24.363Z,0.95
2022-08-25T03:40:06.396Z,0.95
2022-08-25T03:41:16.111Z,0.82
2022-08-25T03:42:13.985Z,1.05
2022-08-25T03:43:20.564Z,0.98
2022-08-25T03:44:16.670Z,0.98
2022-08-25T03:45:23.958Z,1.43
2022-08-25T03:46:05.272Z,1.61
2022-08-25T03:47:16.484Z,1.61
2022-08-25T03:48:12.622Z,0.8
2022-08-25T03:49:17.138Z,1.66
2022-08-25T03:50:14.047Z,1.66
2022-08-25T03:51:19.029Z,1.66
2022-08-25T03:52:13.568Z,1.79
2022-08-25T03:53:21.977Z,1.43
2022-08-25T03:54:18.477Z,1.43
2022-08-25T03:55:19.529Z,1
2022-08-25T03:56:16.330Z,0.82
2022-08-25T03:57:16.749Z,0.82
2022-08-25T03:58:21.085Z,0.99
2022-08-25T03:59:18.380Z,0.99
2022-08-25T04:00:17.491Z,1.22
2022-08-25T04:01:20.294Z,1.04
2022-08-25T04:02:15.376Z,0.96
2022-08-25T04:03:14.001Z,0.96
2022-08-25T04:04:22.646Z,1.19
2022-08-25T04:05:19.710Z,0.91
2022-08-25T04:06:25.738Z,1.59
2022-08-25T04:07:15.930Z,1.01
2022-08-25T04:08:21.173Z,0.77
2022-08-25T04:09:05.366Z,0.77
2022-08-25T04:10:19.658Z,1.41
2022-08-25T04:11:21.121Z,1.41
2022-08-25T04:12:21.009Z,1.41
2022-08-25T04:13:22.560Z,0.83
2022-08-25T04:14:18.769Z,0.83
2022-08-25T04:15:18.841Z,0.96
2022-08-25T04:16:15.254Z,0.88
2022-08-25T04:17:19.931Z,0.71
2022-08-25T04:18:22.437Z,0.86
2022-08-25T04:19:17.807Z,0.86
2022-08-25T04:20:06.809Z,1.75
2022-08-25T04:21:20.588Z,1.53
2022-08-25T04:22:16.063Z,1.77
2022-08-25T04:23:21.308Z,1.77
2022-08-25T04:24:16.516Z,1.04
2022-08-25T04:25:24.273Z,0.66
2022-08-25T04:26:08.190Z,1.05
2022-08-25T04:27:18.354Z,1.19
2022-08-25T04:28:15.484Z,0.94
2022-08-25T04:29:25.523Z,0.94
2022-08-25T04:30:17.555Z,1.26
2022-08-25T04:31:23.205Z,1.26
2022-08-25T04:32:16.859Z,1.01
2022-08-25T04:33:19.244Z,1.01
2022-08-25T04:34:31.914Z,0.86
2022-08-25T04:35:28.548Z,0.86
2022-08-25T04:36:07.717Z,1.44
2022-08-25T04:37:24.451Z,1.52
2022-08-25T04:38:16.722Z,0.86
2022-08-25T04:39:26.445Z,0.86
2022-08-25T04:40:07.717Z,0.75
2022-08-25T04:41:17.689Z,0.83
2022-08-25T04:42:36.230Z,0.83
2022-08-25T04:43:05.251Z,0.83
2022-08-25T04:44:26.246Z,0.85
2022-08-25T04:45:13.965Z,0.99
2022-08-25T04:46:22.726Z,1.67
2022-08-25T04:47:16.296Z,1.62
2022-08-25T04:48:18.605Z,1.49
2022-08-25T04:49:18.678Z,1.09
2022-08-25T04:50:16.995Z,0.95
2022-08-25T04:51:20.763Z,0.95
2022-08-25T04:52:18.277Z,1.04
2022-08-25T04:53:21.112Z,1.3
2022-08-25T04:54:23.193Z,0.98
2022-08-25T04:55:17.962Z,0.98
2022-08-25T04:56:16.649Z,1.3
2022-08-25T04:57:16.825Z,0.64
2022-08-25T04:58:20.193Z,1.04
2022-08-25T04:59:16.938Z,0.98
2022-08-25T05:00:16.111Z,0.98
2022-08-25T05:01:17.968Z,1.05
2022-08-25T05:02:11.766Z,1.46
2022-08-25T05:03:13.339Z,1.32
2022-08-25T05:04:29.938Z,1.32
2022-08-25T05:05:19.026Z,1.25
2022-08-25T05:06:33.479Z,0.88
2022-08-25T05:07:05.044Z,0.88
2022-08-25T05:08:18.617Z,1.02
2022-08-25T05:09:23.887Z,0.96
2022-08-25T05:10:16.253Z,0.96
2022-08-25T05:11:18.733Z,1.21
2022-08-25T05:12:14.656Z,0.85
2022-08-25T05:13:13.712Z,0.85
2022-08-25T05:14:28.355Z,1.14
2022-08-25T05:15:15.291Z,1.14
2022-08-25T05:16:19.300Z,1.14
2022-08-25T05:17:20.376Z,0.71
2022-08-25T05:18:21.518Z,0.71
2022-08-25T05:19:22.103Z,0.8
2022-08-25T05:20:17.105Z,0.8
2022-08-25T05:21:15.690Z,1.28
2022-08-25T05:22:20.159Z,1.17
2022-08-25T05:23:16.934Z,1.17
2022-08-25T05:24:19.767Z,1.32
2022-08-25T05:25:21.664Z,1.32
2022-08-25T05:26:21.646Z,1.32
2022-08-25T05:27:20.494Z,1.29
2022-08-25T05:28:18.284Z,1.21
2022-08-25T05:29:19.577Z,1.12
2022-08-25T05:30:13.588Z,1.12
2022-08-25T05:31:20.136Z,0.84
2022-08-25T05:32:20.301Z,0.85
2022-08-25T05:33:20.754Z,1.66
2022-08-25T05:34:13.966Z,0.68
2022-08-25T05:35:14.656Z,0.65
2022-08-25T05:36:18.265Z,0.65
2022-08-25T05:37:15.636Z,1.31
2022-08-25T05:38:17.555Z,1.39
2022-08-25T05:39:23.239Z,1.39
2022-08-25T05:40:06.605Z,1.39
2022-08-25T05:41:21.067Z,1.24
2022-08-25T05:42:15.891Z,1.36
2022-08-25T05:43:15.672Z,1.36
2022-08-25T05:44:21.660Z,1.71
2022-08-25T05:45:22.648Z,1.7
2022-08-25T05:46:22.063Z,1.7
2022-08-25T05:47:22.107Z,1.06
2022-08-25T05:48:14.642Z,1.05
2022-08-25T05:49:16.037Z,1.05
2022-08-25T05:50:16.916Z,1.38
2022-08-25T05:51:20.793Z,1.45
2022-08-25T05:52:22.091Z,1.45
2022-08-25T05:53:19.047Z,1.05
2022-08-25T05:54:16.596Z,1.21
2022-08-25T05:55:20.075Z,1.21
2022-08-25T05:56:20.685Z,1.32
2022-08-25T05:57:19.826Z,1.34
2022-08-25T05:58:18.711Z,1.34
2022-08-25T05:59:20.754Z,1.54
2022-08-25T06:00:20.749Z,1.54
2022-08-25T06:01:21.794Z,1.59
2022-08-25T06:02:15.109Z,1.59
2022-08-25T06:03:14.987Z,1.37
2022-08-25T06:04:16.386Z,1.37
2022-08-25T06:05:15.686Z,1.18
2022-08-25T06:06:16.709Z,1.18
2022-08-25T06:07:12.672Z,1.48
2022-08-25T06:08:21.791Z,1.39
2022-08-25T06:09:19.028Z,1.39
2022-08-25T06:10:07.221Z,1.21
2022-08-25T06:11:20.227Z,1.61
2022-08-25T06:12:12.501Z,1.61
2022-08-25T06:13:30.770Z,1.81
2022-08-25T06:14:13.951Z,1.31
2022-08-25T06:15:18.564Z,1.31
2022-08-25T06:16:18.082Z,1.82
2022-08-25T06:17:15.876Z,1.61
2022-08-25T06:18:14.915Z,1.4
2022-08-25T06:19:20.647Z,1.63
2022-08-25T06:20:27.392Z,1.63
2022-08-25T06:21:14.995Z,1.63
2022-08-25T06:22:20.386Z,1.98
2022-08-25T06:23:17.644Z,1.98
2022-08-25T06:24:20.295Z,1.58
2022-08-25T06:25:16.143Z,1.58
2022-08-25T06:26:23.522Z,1.52
2022-08-25T06:27:13.037Z,1.52
2022-08-25T06:28:20.142Z,1.33
2022-08-25T06:29:21.887Z,1.73
2022-08-25T06:30:20.248Z,1.96
2022-08-25T06:31:15.451Z,1.96
2022-08-25T06:32:22.359Z,1.14
2022-08-25T06:33:17.566Z,2.34
2022-08-25T06:34:23.861Z,2.34
2022-08-25T06:35:15.068Z,2.34
2022-08-25T06:36:19.933Z,1.14
2022-08-25T06:37:13.804Z,1.24
2022-08-25T06:38:19.148Z,1.24
2022-08-25T06:39:21.005Z,1.29
2022-08-25T06:40:05.604Z,1.29
2022-08-25T06:41:12.322Z,1.5
2022-08-25T06:42:20.274Z,1.41
2022-08-25T06:43:15.142Z,1.28
2022-08-25T06:44:25.858Z,1.55
2022-08-25T06:45:16.690Z,1.55
2022-08-25T06:46:15.912Z,1.46
2022-08-25T06:47:13.241Z,0.79
2022-08-25T06:48:18.698Z,0.79
2022-08-25T06:49:04.792Z,0.79
2022-08-25T06:50:19.749Z,1.62
2022-08-25T06:51:18.742Z,1.62
2022-08-25T06:52:20.345Z,1.62
2022-08-25T06:53:18.450Z,1.49
2022-08-25T06:54:18.120Z,1.97
2022-08-25T06:55:13.662Z,1.8
2022-08-25T06:56:19.174Z,1.8
2022-08-25T06:57:13.148Z,1.12
2022-08-25T06:58:19.355Z,1.06
2022-08-25T06:59:17.053Z,1.06
2022-08-25T07:00:14.519Z,1.06
2022-08-25T07:01:22.425Z,1.76
2022-08-25T07:02:11.132Z,1.28
2022-08-25T07:03:14.090Z,1.28
2022-08-25T07:04:21.637Z,1.92
2022-08-25T07:05:13.165Z,1.92
2022-08-25T07:06:20.426Z,1.31
2022-08-25T07:07:19.994Z,2.51
2022-08-25T07:08:14.197Z,2.51
2022-08-25T07:09:25.630Z,1.86
2022-08-25T07:10:05.441Z,1.86
2022-08-25T07:11:18.711Z,2.42
2022-08-25T07:12:27.825Z,1.58
2022-08-25T07:13:16.040Z,1.16
2022-08-25T07:14:18.245Z,2.05
2022-08-25T07:15:22.773Z,2.05
2022-08-25T07:16:19.250Z,1.31
2022-08-25T07:17:17.917Z,1.83
2022-08-25T07:18:18.458Z,1.83
2022-08-25T07:19:16.888Z,1.54
2022-08-25T07:21:25.828Z,1.96
2022-08-25T07:22:23.426Z,1.96
2022-08-25T07:23:17.994Z,1.56
2022-08-25T07:24:17.728Z,1.14
2022-08-25T07:25:20.100Z,1.14
2022-08-25T07:26:38.396Z,1.41
2022-08-25T07:27:16.985Z,1.41
2022-08-25T07:28:14.801Z,2.14
2022-08-25T07:29:34.426Z,1.35
2022-08-25T07:30:14.836Z,0.86
2022-08-25T07:31:20.067Z,0.86
2022-08-25T07:32:23.585Z,1.28
2022-08-25T07:33:20.291Z,1.62
2022-08-25T07:34:08.153Z,1.62
2022-08-25T07:35:24.047Z,1.75
2022-08-25T07:36:18.762Z,1.44
2022-08-25T07:37:48.700Z,1.44
2022-08-25T07:38:22.828Z,2.26
2022-08-25T07:39:24.068Z,2.13
2022-08-25T07:40:16.443Z,1.62
2022-08-25T07:41:19.082Z,1.62
2022-08-25T07:42:14.915Z,2.02
2022-08-25T07:43:19.810Z,2.02
2022-08-25T07:44:17.723Z,1.52
2022-08-25T07:45:15.466Z,1.52
2022-08-25T07:46:19.973Z,1.34
2022-08-25T07:47:25.151Z,1.34
2022-08-25T07:48:12.586Z,1.34
2022-08-25T07:49:23.033Z,0.96
2022-08-25T07:50:20.320Z,1.85
2022-08-25T07:51:21.461Z,1.68
2022-08-25T07:52:23.187Z,1.68
2022-08-25T07:53:17.032Z,1.62
2022-08-25T07:54:16.115Z,2.74
2022-08-25T07:55:20.095Z,2.33
2022-08-25T07:56:21.397Z,2.33
2022-08-25T07:57:18.500Z,3.04
2022-08-25T07:58:20.600Z,2.44
2022-08-25T07:59:17.550Z,1.69
2022-08-25T08:00:22.474Z,2.86
2022-08-25T08:01:20.705Z,2.72
2022-08-25T08:02:20.925Z,1.61
2022-08-25T08:03:50.222Z,1.61
2022-08-25T08:04:18.414Z,1.73
2022-08-25T08:05:25.888Z,1.38
2022-08-25T08:06:15.470Z,1.38
2022-08-25T08:07:22.991Z,1.15
2022-08-25T08:08:21.087Z,2.28
2022-08-25T08:09:26.619Z,2.28
2022-08-25T08:11:16.997Z,2.04
2022-08-25T08:12:17.197Z,1.63
2022-08-25T08:13:20.249Z,1.34
2022-08-25T08:14:21.520Z,1.96
2022-08-25T08:15:16.600Z,2.14
2022-08-25T08:16:18.153Z,2.22
2022-08-25T08:17:15.780Z,2.22
2022-08-25T08:18:20.523Z,2.22
2022-08-25T08:19:13.716Z,1.68
2022-08-25T08:20:16.339Z,2.13
2022-08-25T08:21:21.912Z,2.27
2022-08-25T08:22:14.443Z,2.27
2022-08-25T08:23:18.559Z,1.51
2022-08-25T08:24:25.004Z,1.51
2022-08-25T08:25:13.671Z,1.62
2022-08-25T08:26:19.254Z,1.36
2022-08-25T08:27:15.770Z,2.36
2022-08-25T08:28:15.906Z,2.36
2022-08-25T08:29:14.761Z,1.48
2022-08-25T08:30:13.991Z,1.48
2022-08-25T08:31:19.333Z,1.12
2022-08-25T08:32:20.937Z,1.12
2022-08-25T08:33:21.697Z,2.32
2022-08-25T08:34:15.287Z,2.32
2022-08-25T08:35:17.001Z,2.22
2022-08-25T08:36:14.996Z,1.56
2022-08-25T08:37:25.109Z,1.6
2022-08-25T08:38:20.785Z,1.6
2022-08-25T08:39:32.743Z,1.6
2022-08-25T08:40:08.010Z,1.71
2022-08-25T08:41:17.109Z,1.71
2022-08-25T08:42:19.276Z,2.17
2022-08-25T08:43:21.866Z,1.47
2022-08-25T08:44:17.336Z,1.55
2022-08-25T08:45:21.096Z,1.72
2022-08-25T08:46:14.525Z,1.72
2022-08-25T08:47:20.281Z,1.81
2022-08-25T08:48:15.460Z,1.81
2022-08-25T08:49:16.948Z,1.81
2022-08-25T08:50:27.815Z,1.66
2022-08-25T08:51:14.157Z,2.97
2022-08-25T08:52:18.700Z,2.97
2022-08-25T08:53:17.270Z,1.7
2022-08-25T08:54:19.620Z,2.21
2022-08-25T08:55:16.476Z,2.21
2022-08-25T08:56:18.806Z,1.77
2022-08-25T08:57:15.167Z,1.82
2022-08-25T08:58:28.246Z,1.82
2022-08-25T08:59:15.355Z,1.58
2022-08-25T09:00:21.639Z,1.58
2022-08-25T09:01:16.880Z,1.39
2022-08-25T09:02:15.986Z,1.39
2022-08-25T09:03:14.487Z,2.26
2022-08-25T09:04:16.921Z,2.26
2022-08-25T09:05:19.545Z,1.53
2022-08-25T09:06:19.262Z,1.85
2022-08-25T09:07:18.197Z,1.85
2022-08-25T09:08:22.571Z,1.82
2022-08-25T09:09:22.798Z,1.82
2022-08-25T09:10:07.358Z,1.53
2022-08-25T09:11:23.120Z,1.53
2022-08-25T09:12:19.197Z,2.12
2022-08-25T09:13:17.630Z,2.12
2022-08-25T09:14:14.971Z,2.14
2022-08-25T09:15:17.222Z,1.62
2022-08-25T09:16:31.859Z,1.62
2022-08-25T09:17:12.841Z,1.85
2022-08-25T09:18:23.032Z,2.68
2022-08-25T09:19:23.772Z,1.95
2022-08-25T09:20:21.545Z,2.1
2022-08-25T09:21:17.923Z,2.24
2022-08-25T09:22:38.229Z,2.24
2022-08-25T09:23:22.449Z,1.54
2022-08-25T09:24:17.895Z,1.54
2022-08-25T09:25:21.902Z,1.54
2022-08-25T09:26:13.552Z,1.95
2022-08-25T09:27:14.571Z,1.95
2022-08-25T09:28:18.282Z,1.67
2022-08-25T09:29:18.825Z,1.67
2022-08-25T09:30:17.798Z,1.97
2022-08-25T09:31:12.169Z,1.82
2022-08-25T09:32:31.302Z,2.28
2022-08-25T09:33:23.245Z,2.28
2022-08-25T09:34:16.254Z,2.28
2022-08-25T09:35:19.962Z,2.39
2022-08-25T09:36:13.977Z,2.19
2022-08-25T09:37:18.010Z,2.1
2022-08-25T09:38:18.013Z,1.52
2022-08-25T09:39:20.625Z,1.52
2022-08-25T09:40:05.060Z,1.36
2022-08-25T09:41:21.480Z,1.36
2022-08-25T09:42:25.720Z,2.18
2022-08-25T09:43:14.922Z,2.18
2022-08-25T09:44:21.373Z,1.98
2022-08-25T09:45:25.417Z,1.98
2022-08-25T09:46:15.435Z,1.89
2022-08-25T09:47:15.888Z,1.89
2022-08-25T09:48:24.568Z,1.63
2022-08-25T09:49:19.888Z,2.46
2022-08-25T09:50:20.802Z,1.94
2022-08-25T09:51:18.316Z,2.3
2022-08-25T09:52:14.894Z,2.3
2022-08-25T09:53:19.453Z,1.55
2022-08-25T09:54:16.142Z,2.22
2022-08-25T09:55:16.885Z,2.22
2022-08-25T09:56:18.557Z,1.49
2022-08-25T09:57:23.149Z,1.49
2022-08-25T09:58:24.420Z,2.46
2022-08-25T09:59:17.990Z,2.46
2022-08-25T10:00:11.367Z,2.48
2022-08-25T10:01:22.359Z,2.28
2022-08-25T10:02:17.906Z,1.72
2022-08-25T10:03:25.176Z,1.72
2022-08-25T10:04:22.328Z,2.24
2022-08-25T10:05:17.723Z,1.96
2022-08-25T10:06:17.075Z,1.55
2022-08-25T10:07:15.921Z,1.55
2022-08-25T10:08:26.884Z,1.62
2022-08-25T10:09:18.217Z,1.98
2022-08-25T10:10:08.536Z,1.98
2022-08-25T10:11:18.297Z,1.81
2022-08-25T10:12:16.050Z,2.06
2022-08-25T10:13:25.577Z,2.06
2022-08-25T10:14:16.417Z,2.06
2022-08-25T10:15:17.302Z,2.13
2022-08-25T10:16:28.698Z,1.42
2022-08-25T10:17:23.058Z,2.22
2022-08-25T10:18:17.078Z,2.25
2022-08-25T10:19:15.755Z,2.25
2022-08-25T10:20:16.695Z,2.34
2022-08-25T10:21:16.041Z,1.92
2022-08-25T10:22:13.974Z,2.86
2022-08-25T10:23:18.667Z,2.16
2022-08-25T10:24:26.358Z,1.98
2022-08-25T10:25:16.145Z,2.46
2022-08-25T10:26:18.194Z,2.46
2022-08-25T10:27:15.592Z,2.15
2022-08-25T10:28:16.730Z,2.15
2022-08-25T10:29:12.139Z,1.89
2022-08-25T10:30:05.787Z,1.89
2022-08-25T10:31:18.212Z,1.88
2022-08-25T10:32:14.986Z,2.76
2022-08-25T10:33:16.025Z,3.61
2022-08-25T10:34:21.830Z,3.61
2022-08-25T10:35:15.834Z,2.17
2022-08-25T10:36:16.629Z,2.17
2022-08-25T10:37:17.414Z,2.34
2022-08-25T10:38:24.071Z,2.33
2022-08-25T10:39:37.032Z,2.16
2022-08-25T10:40:05.626Z,2.16
2022-08-25T10:41:17.696Z,2.14
2022-08-25T10:42:20.159Z,2.14
2022-08-25T10:43:16.603Z,2.16
2022-08-25T10:44:24.062Z,2.32
2022-08-25T10:45:23.710Z,1.96
2022-08-25T10:46:18.687Z,1.96
2022-08-25T10:47:19.732Z,2.19
2022-08-25T10:48:24.339Z,1.85
2022-08-25T10:49:16.896Z,1.85
2022-08-25T10:50:06.633Z,1.65
2022-08-25T10:51:27.494Z,1.39
2022-08-25T10:52:18.327Z,3.07
2022-08-25T10:53:19.020Z,3.07
2022-08-25T10:54:20.545Z,1.11
2022-08-25T10:55:16.132Z,1.76
2022-08-25T10:56:21.371Z,2.49
2022-08-25T10:57:18.571Z,2.49
2022-08-25T10:58:14.938Z,1.94
2022-08-25T10:59:17.695Z,1.94
2022-08-25T11:00:17.998Z,2.82
2022-08-25T11:01:19.247Z,2.82
2022-08-25T11:02:21.940Z,1.61
2022-08-25T11:03:28.889Z,1.61
2022-08-25T11:04:18.001Z,1.25
2022-08-25T11:06:20.265Z,2.31
2022-08-25T11:07:15.921Z,1.86
2022-08-25T11:08:16.834Z,1.86
2022-08-25T11:09:25.312Z,2.55
2022-08-25T11:10:06.622Z,2.55
2022-08-25T11:11:10.589Z,2.55
2022-08-25T11:12:18.345Z,1.64
2022-08-25T11:13:19.017Z,1.64
2022-08-25T11:14:17.299Z,2
2022-08-25T11:15:18.796Z,2
2022-08-25T11:16:21.205Z,1.82
2022-08-25T11:17:18.968Z,1.82
2022-08-25T11:18:17.679Z,2.38
2022-08-25T11:19:17.716Z,2.38
2022-08-25T11:20:29.907Z,2.43
2022-08-25T11:21:15.998Z,2.43
2022-08-25T11:22:21.528Z,2.61
2022-08-25T11:23:21.777Z,2.61
2022-08-25T11:24:17.116Z,2.61
2022-08-25T11:25:16.597Z,1.89
2022-08-25T11:26:23.450Z,1.68
2022-08-25T11:27:19.480Z,1.86
2022-08-25T11:28:15.713Z,1.86
2022-08-25T11:29:18.505Z,1.79
2022-08-25T11:30:14.380Z,2.82
2022-08-25T11:31:18.694Z,1.95
2022-08-25T11:32:15.030Z,1.95
2022-08-25T11:33:17.399Z,1.74
2022-08-25T11:34:13.813Z,2.26
2022-08-25T11:35:17.397Z,2.26
2022-08-25T11:36:15.164Z,2.16
2022-08-25T11:37:19.150Z,1.49
2022-08-25T11:38:17.818Z,1.56
2022-08-25T11:39:20.848Z,2.29
2022-08-25T11:40:06.669Z,2.29
2022-08-25T11:41:18.888Z,2.29
2022-08-25T11:42:16.694Z,1.88
2022-08-25T11:43:16.305Z,3.53
2022-08-25T11:44:16.922Z,3.53
2022-08-25T11:45:16.267Z,1.53
2022-08-25T11:46:16.595Z,1.78
2022-08-25T11:47:23.212Z,1.55
2022-08-25T11:48:25.712Z,1.81
2022-08-25T11:49:18.433Z,1.74
2022-08-25T11:50:17.085Z,1.74
2022-08-25T11:51:20.596Z,1.72
2022-08-25T11:52:11.914Z,2.09
2022-08-25T11:53:18.828Z,2.09
2022-08-25T11:54:14.470Z,1.69
2022-08-25T11:55:17.474Z,1.62
2022-08-25T11:56:19.794Z,2.82
2022-08-25T11:57:13.998Z,2.82
2022-08-25T11:58:23.214Z,1.19
2022-08-25T11:59:17.690Z,1.88
2022-08-25T12:00:17.746Z,1.88
2022-08-25T12:01:14.147Z,1.71
2022-08-25T12:02:18.757Z,2.15
2022-08-25T12:03:13.771Z,1.78
2022-08-25T12:04:31.614Z,1.92
2022-08-25T12:05:17.815Z,2.4
2022-08-25T12:06:15.428Z,2.4
2022-08-25T12:07:18.766Z,1.99
2022-08-25T12:08:19.413Z,1.57
2022-08-25T12:09:25.518Z,2.63
2022-08-25T12:10:05.771Z,1.36
2022-08-25T12:11:18.954Z,1.36
2022-08-25T12:12:18.266Z,1.72
2022-08-25T12:13:22.591Z,1.72
2022-08-25T12:14:13.022Z,1.18
2022-08-25T12:15:21.321Z,1.18
2022-08-25T12:16:18.487Z,1.65
2022-08-25T12:17:18.547Z,1.65
2022-08-25T12:18:18.738Z,1.16
2022-08-25T12:19:18.985Z,1.16
2022-08-25T12:20:18.863Z,1.84
2022-08-25T12:21:26.068Z,1.84
2022-08-25T12:22:14.258Z,1.76
2022-08-25T12:23:17.682Z,1.45
2022-08-25T12:24:16.163Z,2.68
2022-08-25T12:25:16.343Z,2.12
2022-08-25T12:26:19.116Z,1.55
2022-08-25T12:27:20.193Z,1.55
2022-08-25T12:28:11.098Z,2.01
2022-08-25T12:29:19.069Z,2.01
2022-08-25T12:30:21.372Z,1.24
2022-08-25T12:31:19.016Z,1.24
2022-08-25T12:32:16.671Z,2.44
2022-08-25T12:33:18.161Z,2.44
2022-08-25T12:34:29.066Z,1.74
2022-08-25T12:35:15.877Z,1.74
2022-08-25T12:36:22.966Z,1.58
2022-08-25T12:37:15.531Z,1.58
2022-08-25T12:38:13.973Z,1.74
2022-08-25T12:39:26.579Z,2.8
2022-08-25T12:40:05.709Z,2.8
2022-08-25T12:41:17.487Z,1.63
2022-08-25T12:42:17.435Z,1.82
2022-08-25T12:43:21.862Z,1.82
2022-08-25T12:44:16.533Z,2.11
2022-08-25T12:45:19.837Z,1.37
2022-08-25T12:46:18.242Z,1.37
2022-08-25T12:47:17.649Z,1.26
2022-08-25T12:48:16.025Z,1.26
2022-08-25T12:49:23.121Z,2.36
2022-08-25T12:50:17.845Z,1.86
2022-08-25T12:51:20.038Z,1.86
2022-08-25T12:52:16.024Z,1.86
2022-08-25T12:53:17.549Z,1.28
2022-08-25T12:54:18.896Z,1.78
2022-08-25T12:55:21.968Z,0.99
2022-08-25T12:56:12.675Z,0.99
2022-08-25T12:57:14.697Z,1.19
2022-08-25T12:58:20.028Z,1.19
2022-08-25T12:59:20.439Z,1.84
2022-08-25T13:00:20.848Z,1.46
2022-08-25T13:01:37.997Z,1.46
2022-08-25T13:02:18.703Z,1.39
2022-08-25T13:03:16.286Z,1.45
2022-08-25T13:04:23.840Z,1.45
2022-08-25T13:05:22.080Z,1.49
2022-08-25T13:06:17.995Z,1.9
2022-08-25T13:07:18.371Z,1.9
2022-08-25T13:08:20.900Z,1.46
2022-08-25T13:09:25.762Z,1.53
2022-08-25T13:10:05.590Z,1.53
2022-08-25T13:11:22.557Z,1.41
2022-08-25T13:12:21.416Z,1.04
2022-08-25T13:13:15.724Z,1.04
2022-08-25T13:14:19.108Z,1.41
2022-08-25T13:15:24.750Z,1.41
2022-08-25T13:16:29.269Z,1.68
2022-08-25T13:17:09.520Z,1.55
2022-08-25T13:18:20.772Z,1.16
2022-08-25T13:19:21.144Z,1.18
2022-08-25T13:20:18.484Z,1.18
2022-08-25T13:21:16.585Z,1.43
2022-08-25T13:22:18.732Z,1.43
2022-08-25T13:23:17.958Z,1.42